Time;durP1;ratioP1;P1;durP2;ratioP2;P2;SDS_P1;SDS_P2;PMS_P1;PMS_P2;Temp;Humidity;BMP_temperature;BMP_pressure;BME280_temperature;BME280_humidity;BME280_pressure;Samples;Min_cycle;Max_cycle;Signal;HPM_P1;HPM_P2
2023/09/22 00:00:15;;;;;;;4.77;4.03;;;;;;;19.11;70.99;93556.34;528464;27;881;-42
2023/09/22 00:00:30;;;;;;;4.68;4.18;;;;;;;19.10;71.08;93552.78;528513;28;915;-42
2023/09/22 00:00:46;;;;;;;4.47;4.07;;;;;;;19.10;70.99;93552.09;528358;28;974;-42
2023/09/22 00:01:01;;;;;;;4.20;3.80;;;;;;;19.10;70.86;93550.00;528484;28;781;-43
2023/09/22 00:01:17;;;;;;;4.95;4.07;;;;;;;19.09;70.70;93559.00;528523;28;828;-43
2023/09/22 00:01:32;;;;;;;4.97;4.27;;;;;;;19.09;70.78;93559.00;528423;28;797;-43
2023/09/22 00:01:47;;;;;;;4.30;3.90;;;;;;;19.08;70.75;93552.66;528453;28;957;-43
2023/09/22 00:02:03;;;;;;;4.10;3.70;;;;;;;19.08;70.75;93563.16;528484;28;904;-42
2023/09/22 00:02:18;;;;;;;4.83;3.80;;;;;;;19.08;70.78;93563.16;528267;28;873;-42
2023/09/22 00:02:34;;;;;;;4.95;3.72;;;;;;;19.08;70.77;93560.34;528388;28;986;-42
2023/09/22 00:02:49;;;;;;;5.00;3.90;;;;;;;19.07;70.91;93556.06;528444;28;891;-42
2023/09/22 00:03:07;;;;;;;5.40;4.23;;;;;;;19.07;70.87;93558.88;528481;28;902;-42
2023/09/22 00:03:23;;;;;;;5.30;4.40;;;;;;;19.08;70.90;93569.47;528511;28;883;-42
2023/09/22 00:03:38;;;;;;;4.80;3.97;;;;;;;19.09;70.82;93567.41;528476;28;1041;-42
2023/09/22 00:03:54;;;;;;;4.93;3.87;;;;;;;19.08;71.00;93569.47;528496;28;925;-42
2023/09/22 00:04:10;;;;;;;4.93;3.88;;;;;;;19.09;71.09;93559.00;528486;28;1618;-42
2023/09/22 00:04:26;;;;;;;4.47;3.83;;;;;;;19.10;70.99;93560.47;528473;28;915;-42
2023/09/22 00:04:41;;;;;;;4.63;3.80;;;;;;;19.11;71.12;93561.94;528463;28;804;-42
2023/09/22 00:04:57;;;;;;;4.40;3.80;;;;;;;18.94;71.04;93540.56;528425;28;1909;-42
2023/09/22 00:05:13;;;;;;;4.45;4.03;;;;;;;19.11;70.91;93571.06;528474;28;920;-42
2023/09/22 00:05:29;;;;;;;4.28;3.88;;;;;;;19.12;70.83;93569.00;528376;28;944;-42
2023/09/22 00:05:44;;;;;;;3.95;3.58;;;;;;;19.11;70.78;93573.88;528532;28;872;-42
2023/09/22 00:05:59;;;;;;;4.10;3.70;;;;;;;19.11;70.82;93568.25;527682;28;1409;-42
2023/09/22 00:06:15;;;;;;;3.87;3.57;;;;;;;19.12;70.77;93564.16;527985;28;881;-42
2023/09/22 00:06:31;;;;;;;3.80;3.40;;;;;;;19.11;70.98;93562.66;528440;28;1007;-42
2023/09/22 00:06:46;;;;;;;4.40;3.55;;;;;;;19.12;71.04;93569.75;528524;28;782;-42
2023/09/22 00:07:02;;;;;;;4.17;3.60;;;;;;;19.11;70.99;93564.72;528382;28;900;-42
2023/09/22 00:07:17;;;;;;;4.27;3.57;;;;;;;19.11;71.08;93568.25;528431;28;1551;-42
2023/09/22 00:07:33;;;;;;;5.15;3.50;;;;;;;19.10;71.09;93566.78;528517;28;821;-42
2023/09/22 00:07:48;;;;;;;5.30;3.60;;;;;;;19.10;70.95;93564.00;528365;28;983;-42
2023/09/22 00:08:04;;;;;;;6.35;4.13;;;;;;;19.09;71.06;93564.59;528474;28;837;-42
2023/09/22 00:08:19;;;;;;;5.07;3.85;;;;;;;19.07;70.91;93570.06;528444;28;1087;-42
2023/09/22 00:08:35;;;;;;;3.70;3.40;;;;;;;19.05;71.01;93559.47;528467;28;892;-42
2023/09/22 00:08:50;;;;;;;4.13;3.50;;;;;;;19.04;70.98;93569.19;528526;28;839;-42
2023/09/22 00:09:07;;;;;;;4.50;3.55;;;;;;;19.03;71.02;93567.75;528415;28;861;-42
2023/09/22 00:09:23;;;;;;;4.55;3.47;;;;;;;19.02;70.87;93569.06;528514;28;954;-42
2023/09/22 00:09:38;;;;;;;4.27;3.40;;;;;;;18.95;71.12;93566.50;528449;28;853;-42
2023/09/22 00:09:54;;;;;;;4.18;3.67;;;;;;;18.98;71.06;93566.00;528502;28;833;-42
2023/09/22 00:10:10;;;;;;;5.13;3.80;;;;;;;18.98;71.14;93573.66;528481;28;812;-42
2023/09/22 00:10:25;;;;;;;6.03;3.78;;;;;;;18.96;71.27;93567.94;528187;28;826;-42
2023/09/22 00:10:41;;;;;;;4.95;3.70;;;;;;;18.95;71.18;93569.28;528288;28;916;-42
2023/09/22 00:10:56;;;;;;;4.37;3.50;;;;;;;18.95;71.34;93570.00;528336;28;899;-42
2023/09/22 00:11:11;;;;;;;5.60;3.60;;;;;;;18.94;71.40;93576.94;528317;28;789;-42
2023/09/22 00:11:27;;;;;;;5.33;3.57;;;;;;;18.93;71.32;93573.41;528160;28;1135;-42
2023/09/22 00:11:42;;;;;;;4.25;3.58;;;;;;;18.93;71.46;93572.69;528278;28;849;-42
2023/09/22 00:11:58;;;;;;;5.20;3.73;;;;;;;18.93;71.44;93575.47;528323;28;856;-42
2023/09/22 00:12:13;;;;;;;5.53;3.70;;;;;;;18.93;71.50;93575.47;528343;28;785;-42
2023/09/22 00:12:29;;;;;;;4.27;3.50;;;;;;;18.93;71.57;93573.41;528395;28;880;-42
2023/09/22 00:12:45;;;;;;;4.03;3.42;;;;;;;18.91;71.79;93570.50;527161;27;989;-42
2023/09/22 00:13:00;;;;;;;4.70;3.80;;;;;;;18.93;71.57;93575.47;526342;28;892;-42
2023/09/22 00:13:16;;;;;;;4.73;3.87;;;;;;;18.91;71.65;93576.09;526347;28;950;-42
2023/09/22 00:13:32;;;;;;;4.28;3.55;;;;;;;18.92;71.71;93574.03;526333;28;1735;-42
2023/09/22 00:13:47;;;;;;;4.78;3.92;;;;;;;18.92;71.79;93574.03;526336;28;839;-42
2023/09/22 00:14:03;;;;;;;4.80;4.27;;;;;;;18.91;71.66;93573.28;526438;28;833;-42
2023/09/22 00:14:19;;;;;;;4.43;3.72;;;;;;;18.92;71.67;93574.03;526213;28;1017;-42
2023/09/22 00:14:35;;;;;;;4.67;3.60;;;;;;;18.90;71.84;93569.03;526333;28;888;-42
2023/09/22 00:14:51;;;;;;;5.18;3.55;;;;;;;18.90;71.75;93569.03;525960;28;849;-42
2023/09/22 00:15:06;;;;;;;5.57;3.70;;;;;;;18.90;71.57;93568.31;526036;28;869;-42
2023/09/22 00:15:22;;;;;;;4.72;3.67;;;;;;;18.89;71.75;93566.81;528037;28;2669;-42
2023/09/22 00:15:37;;;;;;;3.80;3.50;;;;;;;18.87;71.55;93572.28;528467;28;800;-42
2023/09/22 00:15:52;;;;;;;4.50;4.00;;;;;;;18.86;71.77;93565.94;528510;28;873;-42
2023/09/22 00:16:09;;;;;;;6.57;4.00;;;;;;;18.87;71.96;93569.50;528437;28;910;-42
2023/09/22 00:16:25;;;;;;;5.85;3.80;;;;;;;18.87;71.88;93564.63;528266;28;953;-42
2023/09/22 00:16:41;;;;;;;4.00;3.60;;;;;;;18.87;72.03;93561.84;528359;28;879;-42
2023/09/22 00:16:56;;;;;;;3.92;3.53;;;;;;;18.87;71.92;93556.25;528392;28;919;-42
2023/09/22 00:17:11;;;;;;;4.10;3.70;;;;;;;18.86;71.80;93563.16;528390;28;854;-42
2023/09/22 00:17:27;;;;;;;4.20;3.80;;;;;;;18.77;71.92;93544.41;528186;28;931;-42
2023/09/22 00:17:43;;;;;;;4.43;3.97;;;;;;;18.83;71.98;93555.97;528495;28;908;-42
2023/09/22 00:17:58;;;;;;;4.50;3.90;;;;;;;18.80;71.86;93562.03;528415;28;863;-42
2023/09/22 00:18:13;;;;;;;9.17;3.93;;;;;;;18.78;72.11;93564.69;528406;28;919;-42
2023/09/22 00:18:29;;;;;;;8.43;3.95;;;;;;;18.78;72.05;93561.91;528277;27;906;-42
2023/09/22 00:18:44;;;;;;;4.60;3.73;;;;;;;18.77;72.22;93557.66;528406;28;923;-42
2023/09/22 00:19:04;;;;;;;4.77;3.77;;;;;;;18.75;72.29;93561.03;528386;28;923;-42
2023/09/22 00:19:20;;;;;;;4.18;3.78;;;;;;;18.71;72.36;93552.38;528385;28;927;-42
2023/09/22 00:19:35;;;;;;;3.90;3.60;;;;;;;18.76;72.34;93559.72;528181;28;1084;-42
2023/09/22 00:19:51;;;;;;;4.20;3.70;;;;;;;18.77;72.52;93563.25;528467;28;761;-42
2023/09/22 00:20:08;;;;;;;4.38;3.85;;;;;;;18.78;72.41;93564.69;528440;28;890;-42
2023/09/22 00:20:23;;;;;;;4.32;3.92;;;;;;;18.78;72.43;93571.03;528432;28;1011;-42
2023/09/22 00:20:39;;;;;;;4.43;4.03;;;;;;;18.78;72.49;93567.50;528361;28;852;-42
2023/09/22 00:20:57;;;;;;;4.47;4.03;;;;;;;18.80;72.65;93567.63;528240;28;1109;-42
2023/09/22 00:21:12;;;;;;;4.28;3.85;;;;;;;18.81;72.60;93569.09;528490;28;932;-42
2023/09/22 00:21:28;;;;;;;3.97;3.57;;;;;;;18.81;72.62;93574.69;528336;28;883;-42
2023/09/22 00:21:43;;;;;;;4.97;3.55;;;;;;;18.82;72.59;93573.34;528360;28;911;-41
2023/09/22 00:21:59;;;;;;;4.60;3.40;;;;;;;18.83;72.55;93577.63;528410;28;915;-42
2023/09/22 00:22:14;;;;;;;3.87;3.43;;;;;;;18.83;72.46;93580.41;528374;28;1086;-42
2023/09/22 00:22:30;;;;;;;4.90;3.60;;;;;;;18.83;72.51;93572.75;528404;28;1093;-42
2023/09/22 00:22:45;;;;;;;6.33;4.10;;;;;;;18.83;72.38;93577.63;528435;28;923;-42
2023/09/22 00:23:00;;;;;;;5.22;4.13;;;;;;;18.83;72.40;93572.03;528448;28;940;-42
2023/09/22 00:23:16;;;;;;;4.00;3.60;;;;;;;18.84;72.33;93573.50;528223;28;862;-42
2023/09/22 00:23:31;;;;;;;4.23;3.40;;;;;;;18.85;72.16;93570.09;528298;28;880;-42
2023/09/22 00:23:49;;;;;;;4.82;3.50;;;;;;;18.86;72.19;93579.22;528253;28;1250;-42
2023/09/22 00:24:05;;;;;;;5.53;3.90;;;;;;;18.87;72.04;93575.09;528128;28;877;-42
2023/09/22 00:24:20;;;;;;;4.37;3.77;;;;;;;18.87;72.04;93577.88;528158;28;849;-42
2023/09/22 00:24:36;;;;;;;3.95;3.55;;;;;;;18.88;72.04;93573.75;528176;28;1058;-42
2023/09/22 00:24:51;;;;;;;4.17;3.57;;;;;;;18.87;72.18;93572.28;528227;28;1984;-42
2023/09/22 00:25:09;;;;;;;4.70;3.53;;;;;;;18.86;72.14;93577.16;528376;28;852;-42
2023/09/22 00:25:24;;;;;;;4.88;3.75;;;;;;;18.87;72.01;93578.63;528404;27;880;-42
2023/09/22 00:25:39;;;;;;;4.20;3.50;;;;;;;18.86;72.11;93573.63;528486;27;855;-42
2023/09/22 00:25:55;;;;;;;3.65;3.35;;;;;;;18.86;72.07;93573.63;527819;28;1223;-42
2023/09/22 00:26:10;;;;;;;3.60;3.30;;;;;;;18.85;72.07;93572.16;526299;28;900;-42
2023/09/22 00:26:26;;;;;;;3.75;3.40;;;;;;;18.84;72.27;93570.72;527635;28;1084;-42
2023/09/22 00:26:41;;;;;;;3.97;3.50;;;;;;;18.84;72.17;93573.50;528250;28;800;-42
2023/09/22 00:26:57;;;;;;;4.57;3.27;;;;;;;18.84;72.25;93573.50;528453;28;892;-42
2023/09/22 00:27:15;;;;;;;5.05;3.42;;;;;;;18.84;72.28;93576.31;527574;28;1192;-42
2023/09/22 00:27:30;;;;;;;4.53;3.65;;;;;;;18.84;72.43;93576.31;528425;28;995;-42
2023/09/22 00:27:46;;;;;;;3.90;3.50;;;;;;;18.84;72.41;93579.09;528241;28;1357;-43
2023/09/22 00:28:01;;;;;;;4.47;3.25;;;;;;;18.84;72.42;93582.59;528368;27;1059;-42
2023/09/22 00:28:17;;;;;;;4.23;3.03;;;;;;;18.83;72.56;93577.63;528489;28;804;-42
2023/09/22 00:28:32;;;;;;;3.80;3.25;;;;;;;18.85;72.56;93580.56;528384;28;993;-42
2023/09/22 00:28:48;;;;;;;4.10;3.67;;;;;;;18.85;72.67;93574.97;528381;28;1179;-42
2023/09/22 00:29:03;;;;;;;4.22;3.70;;;;;;;18.85;72.81;93577.75;528403;28;957;-42
2023/09/22 00:29:19;;;;;;;5.00;3.63;;;;;;;18.85;72.73;93574.97;528434;28;785;-42
2023/09/22 00:29:34;;;;;;;5.05;3.60;;;;;;;18.84;72.65;93576.31;528476;28;842;-42
2023/09/22 00:29:49;;;;;;;4.10;3.33;;;;;;;18.85;72.76;93572.16;528460;27;777;-42
2023/09/22 00:30:08;;;;;;;5.73;3.50;;;;;;;18.85;72.49;93572.16;528340;28;1172;-42
2023/09/22 00:30:24;;;;;;;7.20;3.90;;;;;;;18.85;72.57;93574.97;528241;28;860;-42
2023/09/22 00:30:39;;;;;;;7.07;3.90;;;;;;;18.85;72.66;93570.09;528299;28;813;-42
2023/09/22 00:30:54;;;;;;;4.32;3.85;;;;;;;18.85;72.68;93572.16;528370;28;864;-41
2023/09/22 00:31:10;;;;;;;4.63;3.90;;;;;;;18.84;72.67;93576.31;528459;28;784;-42
2023/09/22 00:31:25;;;;;;;4.60;3.87;;;;;;;18.86;72.67;93579.22;528371;28;1318;-42
2023/09/22 00:31:41;;;;;;;4.95;4.00;;;;;;;18.85;72.56;93578.50;528322;28;1626;-42
2023/09/22 00:31:56;;;;;;;5.13;4.00;;;;;;;18.85;72.33;93581.28;528340;28;925;-42
2023/09/22 00:32:11;;;;;;;5.72;3.92;;;;;;;18.86;72.52;93582.03;528462;28;832;-42
2023/09/22 00:32:27;;;;;;;6.23;3.97;;;;;;;18.86;72.48;93574.34;528362;28;1137;-41
2023/09/22 00:32:42;;;;;;;6.00;3.73;;;;;;;18.86;72.41;93576.44;527823;28;1308;-42
2023/09/22 00:32:58;;;;;;;5.93;3.88;;;;;;;18.86;72.35;93574.34;528188;28;899;-42
2023/09/22 00:33:13;;;;;;;5.90;4.57;;;;;;;18.87;72.31;93584.22;528465;28;849;-42
2023/09/22 00:33:29;;;;;;;8.38;4.80;;;;;;;18.87;72.42;93575.81;528355;28;1033;-42
2023/09/22 00:33:44;;;;;;;8.40;4.60;;;;;;;18.86;72.41;93574.34;528465;28;770;-42
2023/09/22 00:33:59;;;;;;;7.83;4.63;;;;;;;18.88;72.44;93579.34;528358;28;888;-42
2023/09/22 00:34:15;;;;;;;7.85;4.60;;;;;;;18.85;72.63;93578.50;528444;28;1099;-42
2023/09/22 00:34:32;;;;;;;5.63;4.43;;;;;;;18.88;72.38;93580.06;528432;28;753;-42
2023/09/22 00:34:48;;;;;;;5.38;4.43;;;;;;;18.87;72.29;93580.69;528434;28;840;-42
2023/09/22 00:35:05;;;;;;;6.07;4.60;;;;;;;18.87;72.26;93583.47;528371;28;872;-42
2023/09/22 00:35:20;;;;;;;6.88;4.85;;;;;;;18.88;72.11;93584.94;528356;27;832;-42
2023/09/22 00:35:36;;;;;;;8.30;4.70;;;;;;;18.87;72.11;93578.63;528340;28;958;-42
2023/09/22 00:35:51;;;;;;;8.97;4.40;;;;;;;18.87;72.25;93577.88;528491;28;837;-42
2023/09/22 00:36:06;;;;;;;8.70;4.43;;;;;;;18.87;72.13;93586.28;528464;28;856;-42
2023/09/22 00:36:22;;;;;;;7.43;4.40;;;;;;;18.87;71.94;93578.63;528423;28;773;-42
2023/09/22 00:36:37;;;;;;;4.80;4.22;;;;;;;18.86;71.95;93579.22;528383;27;974;-42
2023/09/22 00:36:56;;;;;;;4.80;4.30;;;;;;;18.87;71.92;93583.47;528419;28;789;-42
2023/09/22 00:37:11;;;;;;;4.95;3.97;;;;;;;18.86;71.87;93577.16;528425;28;849;-42
2023/09/22 00:37:28;;;;;;;4.47;3.80;;;;;;;18.86;71.86;93579.22;528359;28;827;-42
2023/09/22 00:37:43;;;;;;;4.45;3.80;;;;;;;18.86;71.82;93579.22;528322;28;982;-42
2023/09/22 00:37:59;;;;;;;4.22;3.70;;;;;;;18.86;71.78;93582.03;528438;28;849;-42
2023/09/22 00:38:15;;;;;;;4.70;3.80;;;;;;;18.85;71.88;93581.28;528452;28;853;-42
2023/09/22 00:38:31;;;;;;;6.22;4.05;;;;;;;18.85;72.03;93581.28;528453;27;869;-42
2023/09/22 00:38:46;;;;;;;5.53;3.87;;;;;;;18.84;71.81;93581.91;528432;28;1157;-42
2023/09/22 00:39:03;;;;;;;4.95;3.97;;;;;;;18.84;72.00;93588.19;528423;28;940;-42
2023/09/22 00:39:19;;;;;;;5.93;4.13;;;;;;;18.85;71.92;93597.34;528332;28;861;-42
2023/09/22 00:39:34;;;;;;;5.57;3.90;;;;;;;18.85;71.90;93588.94;528449;28;872;-42
2023/09/22 00:39:50;;;;;;;5.22;4.30;;;;;;;18.84;72.03;93593.09;528380;28;809;-42
2023/09/22 00:40:06;;;;;;;6.83;4.33;;;;;;;18.85;72.06;93600.13;528424;28;800;-42
2023/09/22 00:40:22;;;;;;;6.53;4.00;;;;;;;18.85;72.03;93597.34;528367;28;1057;-42
2023/09/22 00:40:37;;;;;;;4.73;4.03;;;;;;;18.84;72.16;93602.19;528363;28;855;-42
2023/09/22 00:40:52;;;;;;;4.23;3.83;;;;;;;18.85;72.05;93598.06;528374;28;812;-42
2023/09/22 00:41:08;;;;;;;5.03;4.05;;;;;;;18.86;72.17;93593.22;528335;28;900;-42
2023/09/22 00:41:23;;;;;;;6.53;4.20;;;;;;;18.86;72.17;93593.22;528422;28;802;-42
2023/09/22 00:41:38;;;;;;;5.97;4.00;;;;;;;18.87;72.16;93598.22;528384;28;805;-42
2023/09/22 00:41:54;;;;;;;5.22;4.30;;;;;;;18.88;72.00;93591.25;528354;28;1200;-42
2023/09/22 00:42:09;;;;;;;5.70;4.63;;;;;;;18.88;72.05;93596.16;528197;28;1170;-41
2023/09/22 00:42:25;;;;;;;5.67;4.27;;;;;;;18.79;72.03;93580.91;528201;28;822;-42
2023/09/22 00:42:41;;;;;;;5.47;4.10;;;;;;;18.83;71.94;93589.56;528209;28;837;-42
2023/09/22 00:43:10;;;;;;;6.13;4.18;;;;;;;18.90;71.69;93596.28;528215;28;868;-42
2023/09/22 00:43:25;;;;;;;4.70;3.33;;;;;;;18.90;71.71;93593.47;528167;28;811;-42
2023/09/22 00:43:41;;;;;;;4.33;3.20;;;;;;;18.88;71.61;93591.25;528281;28;872;-42
2023/09/22 00:43:56;;;;;;;3.90;3.50;;;;;;;18.87;71.73;93589.06;528272;28;893;-42
2023/09/22 00:44:12;;;;;;;4.13;3.73;;;;;;;18.88;71.70;93596.16;528209;28;1040;-42
2023/09/22 00:44:27;;;;;;;6.13;3.90;;;;;;;18.86;71.61;93598.81;528389;28;873;-42
2023/09/22 00:44:43;;;;;;;6.33;4.17;;;;;;;18.87;71.81;93600.25;528383;27;884;-42
2023/09/22 00:44:58;;;;;;;4.25;3.83;;;;;;;18.85;71.82;93603.66;528307;28;1973;-42
2023/09/22 00:45:16;;;;;;;4.83;3.40;;;;;;;18.86;71.71;93607.22;528395;28;884;-42
2023/09/22 00:45:32;;;;;;;4.88;3.95;;;;;;;18.85;71.81;93600.88;528411;27;849;-42
2023/09/22 00:45:50;;;;;;;4.17;3.77;;;;;;;18.86;71.99;93599.53;528156;28;968;-41
2023/09/22 00:46:06;;;;;;;3.58;3.28;;;;;;;18.85;71.79;93598.06;528205;28;963;-42
2023/09/22 00:46:24;;;;;;;3.65;3.35;;;;;;;18.85;71.75;93600.88;528141;28;1001;-42
2023/09/22 00:46:39;;;;;;;3.83;3.47;;;;;;;18.85;71.95;93598.06;526089;28;908;-42
2023/09/22 00:46:55;;;;;;;4.32;3.83;;;;;;;18.85;71.77;93598.06;523976;28;786;-42
2023/09/22 00:47:14;;;;;;;4.23;3.83;;;;;;;18.84;71.84;93595.88;524026;28;857;-42
2023/09/22 00:47:29;;;;;;;4.05;3.65;;;;;;;18.83;72.06;93592.34;521825;28;893;-42
2023/09/22 00:47:45;;;;;;;4.47;3.80;;;;;;;18.82;72.03;93598.53;525600;28;2279;-42
2023/09/22 00:48:01;;;;;;;4.47;3.73;;;;;;;18.81;72.26;93599.88;526099;28;924;-42
2023/09/22 00:48:21;;;;;;;3.95;3.55;;;;;;;18.76;72.09;93600.94;526095;28;908;-42
2023/09/22 00:48:39;;;;;;;4.40;4.00;;;;;;;18.74;72.11;93612.72;526005;28;1055;-42
2023/09/22 00:48:57;;;;;;;4.53;3.90;;;;;;;18.73;72.40;93613.31;524036;28;822;-42
2023/09/22 00:49:13;;;;;;;4.82;3.38;;;;;;;18.71;72.57;93616.69;523684;28;1165;-42
2023/09/22 00:49:29;;;;;;;5.32;3.53;;;;;;;18.71;72.62;93616.00;523977;28;861;-42
2023/09/22 00:49:45;;;;;;;4.55;3.70;;;;;;;18.72;72.72;93614.66;524016;28;964;-42
2023/09/22 00:50:01;;;;;;;6.03;3.60;;;;;;;18.71;72.71;93608.31;524082;28;869;-42
2023/09/22 00:50:17;;;;;;;5.85;3.78;;;;;;;18.72;72.80;93617.44;524030;28;864;-42
2023/09/22 00:50:32;;;;;;;4.65;3.53;;;;;;;18.71;72.65;93613.19;524051;28;919;-42
2023/09/22 00:50:49;;;;;;;4.40;3.47;;;;;;;18.48;72.78;93580.22;521897;28;1244;-42
2023/09/22 00:51:04;;;;;;;3.85;3.45;;;;;;;18.70;72.59;93611.72;522927;28;794;-42
2023/09/22 00:51:21;;;;;;;3.83;3.43;;;;;;;18.56;72.56;93591.22;523954;28;814;-42
2023/09/22 00:51:36;;;;;;;4.07;3.42;;;;;;;18.69;72.61;93602.59;524774;28;893;-42
2023/09/22 00:51:52;;;;;;;3.73;3.23;;;;;;;18.69;72.60;93607.47;525920;28;833;-42
2023/09/22 00:52:07;;;;;;;3.50;3.20;;;;;;;18.58;72.55;93586.47;526064;28;912;-42
2023/09/22 00:52:24;;;;;;;4.50;3.57;;;;;;;18.67;72.70;93598.91;526159;28;805;-42
2023/09/22 00:52:41;;;;;;;5.88;4.13;;;;;;;18.66;72.75;93606.59;524771;28;842;-42
2023/09/22 00:52:57;;;;;;;4.43;3.78;;;;;;;18.65;72.77;93598.78;524020;28;907;-42
2023/09/22 00:53:13;;;;;;;3.78;3.45;;;;;;;18.64;72.71;93602.94;523868;28;809;-42
2023/09/22 00:53:33;;;;;;;4.40;3.77;;;;;;;18.62;72.98;93600.00;523983;28;857;-42
2023/09/22 00:53:51;;;;;;;4.22;3.38;;;;;;;18.61;73.16;93604.13;523962;28;2282;-42
2023/09/22 00:54:06;;;;;;;4.43;3.28;;;;;;;18.61;73.07;93604.13;524009;28;994;-42
2023/09/22 00:54:22;;;;;;;4.00;3.25;;;;;;;18.60;73.25;93605.47;523945;28;908;-42
2023/09/22 00:54:38;;;;;;;4.32;3.35;;;;;;;18.59;73.20;93604.72;525712;28;913;-42
2023/09/22 00:54:53;;;;;;;4.83;3.47;;;;;;;18.58;73.40;93605.31;525646;28;858;-42
2023/09/22 00:55:09;;;;;;;5.18;3.78;;;;;;;18.41;73.62;93592.28;524019;28;861;-42
2023/09/22 00:55:24;;;;;;;4.70;3.87;;;;;;;18.58;73.58;93616.50;524007;28;893;-42
2023/09/22 00:55:40;;;;;;;4.38;3.85;;;;;;;18.56;73.70;93605.19;524024;28;822;-42
2023/09/22 00:55:55;;;;;;;7.60;3.87;;;;;;;18.57;73.83;93610.19;521930;28;1570;-42
2023/09/22 00:56:11;;;;;;;8.20;3.90;;;;;;;18.58;73.78;93616.50;521956;28;928;-42
2023/09/22 00:56:26;;;;;;;5.37;3.93;;;;;;;18.31;73.98;93574.84;521912;28;794;-42
2023/09/22 00:56:43;;;;;;;6.53;4.10;;;;;;;18.59;73.86;93617.97;522423;28;880;-42
2023/09/22 00:57:00;;;;;;;5.95;4.10;;;;;;;18.57;73.67;93615.78;522393;28;876;-42
2023/09/22 00:57:16;;;;;;;4.32;3.92;;;;;;;18.58;73.80;93622.09;523987;28;870;-42
2023/09/22 00:57:32;;;;;;;4.05;3.65;;;;;;;18.58;73.79;93619.31;523955;28;880;-42
2023/09/22 00:57:47;;;;;;;5.07;3.60;;;;;;;18.57;73.92;93618.56;522761;28;866;-42
2023/09/22 00:58:03;;;;;;;7.03;3.87;;;;;;;18.59;73.75;93620.75;523957;28;924;-42
2023/09/22 00:58:22;;;;;;;6.03;3.85;;;;;;;18.47;73.84;93600.38;523918;28;845;-42
2023/09/22 00:58:38;;;;;;;4.30;3.78;;;;;;;18.58;73.80;93624.91;523981;28;790;-42
2023/09/22 00:58:53;;;;;;;4.38;3.97;;;;;;;18.59;73.72;93621.50;525184;28;1262;-42
2023/09/22 00:59:09;;;;;;;4.23;3.60;;;;;;;18.59;73.77;93621.50;526081;28;789;-42
2023/09/22 00:59:24;;;;;;;3.97;3.40;;;;;;;18.60;73.68;93620.16;524030;28;1089;-42
2023/09/22 00:59:40;;;;;;;3.90;3.50;;;;;;;18.61;73.51;93615.31;522791;28;814;-42
2023/09/22 00:59:56;;;;;;;4.13;3.40;;;;;;;18.61;73.68;93616.03;521935;28;872;-42
2023/09/22 01:00:12;;;;;;;4.18;3.63;;;;;;;18.63;73.71;93615.44;521887;28;900;-42
2023/09/22 01:00:27;;;;;;;4.40;3.92;;;;;;;18.62;73.63;93625.91;521929;28;806;-42
2023/09/22 01:00:49;;;;;;;4.43;3.70;;;;;;;18.63;73.75;93615.44;523055;28;821;-42
2023/09/22 01:01:05;;;;;;;4.13;3.30;;;;;;;18.63;73.77;93615.44;524016;28;861;-42
2023/09/22 01:01:20;;;;;;;4.23;3.50;;;;;;;18.63;73.61;93616.19;525352;28;826;-42
2023/09/22 01:01:36;;;;;;;4.97;3.75;;;;;;;18.63;73.71;93615.44;527401;28;1239;-42
2023/09/22 01:01:51;;;;;;;4.60;3.83;;;;;;;18.62;73.59;93619.56;528261;28;871;-42
2023/09/22 01:02:06;;;;;;;4.70;3.65;;;;;;;18.59;73.62;93620.75;528302;28;837;-42
2023/09/22 01:02:22;;;;;;;4.63;3.80;;;;;;;18.58;73.73;93624.91;528324;28;781;-42
2023/09/22 01:02:38;;;;;;;4.40;3.80;;;;;;;18.58;73.78;93631.22;528353;28;836;-42
2023/09/22 01:02:54;;;;;;;3.85;3.45;;;;;;;18.59;73.73;93629.88;528401;28;870;-42
2023/09/22 01:03:10;;;;;;;4.15;3.70;;;;;;;18.60;73.93;93633.44;528061;28;1136;-42
2023/09/22 01:03:26;;;;;;;4.30;3.83;;;;;;;18.61;74.09;93632.09;526068;28;896;-42
2023/09/22 01:03:41;;;;;;;5.72;3.50;;;;;;;18.62;74.08;93625.16;523958;28;862;-42
2023/09/22 01:03:57;;;;;;;5.57;3.60;;;;;;;18.62;74.10;93636.34;523996;28;826;-42
2023/09/22 01:04:13;;;;;;;3.80;3.50;;;;;;;18.63;74.22;93624.56;523999;28;916;-42
2023/09/22 01:04:28;;;;;;;3.80;3.50;;;;;;;18.64;74.06;93626.03;523895;28;907;-42
2023/09/22 01:04:44;;;;;;;4.28;3.88;;;;;;;18.64;74.14;93617.66;523990;28;909;-42
2023/09/22 01:05:00;;;;;;;5.20;4.20;;;;;;;18.65;74.37;93630.28;523977;28;1918;-42
2023/09/22 01:05:16;;;;;;;6.30;4.10;;;;;;;18.65;74.34;93624.69;526629;28;896;-42
2023/09/22 01:05:33;;;;;;;6.13;3.92;;;;;;;18.67;74.36;93622.03;528194;28;962;-42
2023/09/22 01:05:50;;;;;;;7.95;4.07;;;;;;;18.67;74.45;93618.50;528290;28;927;-42
2023/09/22 01:06:06;;;;;;;7.50;4.07;;;;;;;18.69;74.70;93618.66;528340;28;817;-42
2023/09/22 01:06:24;;;;;;;4.43;3.72;;;;;;;18.70;74.73;93620.84;528283;28;1121;-42
2023/09/22 01:06:43;;;;;;;5.30;3.90;;;;;;;18.70;74.79;93618.06;528339;28;956;-42
2023/09/22 01:06:58;;;;;;;4.88;3.88;;;;;;;18.70;74.74;93618.06;528236;28;916;-42
2023/09/22 01:07:14;;;;;;;4.00;3.60;;;;;;;18.71;74.71;93613.19;528340;28;825;-42
2023/09/22 01:07:30;;;;;;;4.88;3.78;;;;;;;18.71;74.50;93616.00;528219;28;1117;-42
2023/09/22 01:07:45;;;;;;;5.15;3.67;;;;;;;18.71;74.48;93616.69;528278;28;1007;-43
2023/09/22 01:08:01;;;;;;;4.23;3.73;;;;;;;18.67;74.48;93607.31;528385;28;848;-42
2023/09/22 01:08:16;;;;;;;4.25;3.85;;;;;;;18.73;74.55;93610.53;528344;28;989;-42
2023/09/22 01:08:31;;;;;;;4.33;3.83;;;;;;;18.72;74.54;93607.00;528307;27;1127;-42
2023/09/22 01:08:47;;;;;;;4.60;3.70;;;;;;;18.72;74.36;93601.41;528341;28;987;-42
2023/09/22 01:09:06;;;;;;;4.80;3.88;;;;;;;18.72;74.50;93598.59;528362;28;844;-42
2023/09/22 01:09:21;;;;;;;5.05;4.00;;;;;;;18.73;74.23;93604.94;528224;28;876;-42
2023/09/22 01:09:37;;;;;;;4.13;3.72;;;;;;;18.72;74.34;93601.41;528391;28;864;-42
2023/09/22 01:09:52;;;;;;;4.25;3.70;;;;;;;18.71;74.38;93594.31;528325;28;844;-42
2023/09/22 01:10:09;;;;;;;3.90;3.43;;;;;;;18.71;74.32;93597.13;528334;27;1264;-42
2023/09/22 01:10:34;;;;;;;3.95;3.55;;;;;;;18.69;74.34;93599.78;528369;28;847;-42
2023/09/22 01:10:49;;;;;;;6.43;3.95;;;;;;;18.69;74.59;93591.41;528335;28;824;-42
2023/09/22 01:11:05;;;;;;;7.00;3.90;;;;;;;18.68;74.71;93586.41;528365;28;840;-42
2023/09/22 01:11:20;;;;;;;5.43;3.73;;;;;;;18.68;74.77;93589.94;528360;28;801;-42
2023/09/22 01:11:36;;;;;;;4.55;3.63;;;;;;;18.68;74.77;93589.22;528173;28;2743;-42
2023/09/22 01:11:51;;;;;;;4.60;3.50;;;;;;;18.67;74.87;93588.47;528312;28;852;-42
2023/09/22 01:12:06;;;;;;;4.73;3.50;;;;;;;18.67;75.02;93584.94;528298;28;852;-42
2023/09/22 01:12:22;;;;;;;5.45;3.75;;;;;;;18.67;75.04;93587.72;528334;28;800;-42
2023/09/22 01:12:38;;;;;;;4.97;3.70;;;;;;;18.66;75.22;93583.50;528236;28;1735;-42
2023/09/22 01:12:54;;;;;;;4.15;3.75;;;;;;;18.66;75.33;93587.03;528331;28;863;-42
2023/09/22 01:13:10;;;;;;;4.97;4.10;;;;;;;18.66;75.22;93580.69;528286;28;923;-42
2023/09/22 01:13:26;;;;;;;5.60;4.35;;;;;;;18.65;75.32;93574.34;528341;28;857;-42
2023/09/22 01:13:42;;;;;;;4.78;4.18;;;;;;;18.66;75.37;93575.09;528393;27;813;-42
2023/09/22 01:13:57;;;;;;;4.38;3.95;;;;;;;18.65;75.22;93574.34;528373;28;884;-42
2023/09/22 01:14:13;;;;;;;4.43;3.77;;;;;;;18.66;75.19;93572.28;528281;28;966;-42
2023/09/22 01:14:28;;;;;;;6.10;3.95;;;;;;;18.65;75.37;93562.44;528341;28;1646;-42
2023/09/22 01:14:44;;;;;;;6.87;3.97;;;;;;;18.65;75.23;93568.03;528387;28;836;-42
2023/09/22 01:15:00;;;;;;;5.75;3.80;;;;;;;18.31;75.23;93518.19;528331;28;880;-42
2023/09/22 01:15:15;;;;;;;5.65;3.78;;;;;;;18.63;75.17;93565.84;528341;28;1651;-42
2023/09/22 01:15:37;;;;;;;5.57;3.73;;;;;;;18.60;75.23;93572.63;528173;28;1507;-42
2023/09/22 01:15:53;;;;;;;4.93;3.80;;;;;;;18.62;75.52;93572.78;528272;28;912;-42
2023/09/22 01:16:08;;;;;;;5.95;4.00;;;;;;;18.62;75.43;93580.44;528131;28;861;-42
2023/09/22 01:16:24;;;;;;;8.33;4.57;;;;;;;18.63;75.69;93581.88;528163;28;891;-42
2023/09/22 01:16:41;;;;;;;6.23;4.40;;;;;;;18.63;75.60;93579.81;528114;28;864;-42
2023/09/22 01:16:56;;;;;;;4.03;3.63;;;;;;;18.62;75.80;93578.38;528126;28;877;-42
2023/09/22 01:17:13;;;;;;;4.33;3.87;;;;;;;18.63;75.88;93579.06;528058;28;896;-42
2023/09/22 01:17:30;;;;;;;4.72;4.03;;;;;;;18.64;76.14;93578.50;528097;28;1472;-42
2023/09/22 01:17:46;;;;;;;4.63;4.05;;;;;;;18.65;76.04;93576.41;528154;28;911;-42